createdAt,value
2023-02-25T00:03:19.940Z,81.74
2023-02-25T00:08:23.542Z,81.66
2023-02-25T00:13:27.977Z,81.55
2023-02-25T00:18:31.392Z,81.60
2023-02-25T00:23:34.805Z,81.68
2023-02-25T00:28:40.333Z,81.72
2023-02-25T00:33:44.193Z,81.85
2023-02-25T00:38:49.472Z,81.86
2023-02-25T00:43:55.751Z,81.94
2023-02-25T00:48:59.574Z,81.90
2023-02-25T00:54:03.089Z,81.89
2023-02-25T00:59:06.694Z,82.15
2023-02-25T01:04:10.933Z,81.83
2023-02-25T01:09:14.548Z,81.98
2023-02-25T01:14:21.382Z,82.16
2023-02-25T01:19:26.690Z,82.14
2023-02-25T01:24:33.169Z,81.90
2023-02-25T01:29:40.527Z,81.83
2023-02-25T01:34:44.100Z,81.86
2023-02-25T01:39:47.712Z,81.86
2023-02-25T01:45:18.572Z,81.81
2023-02-25T01:50:25.781Z,81.83
2023-02-25T01:55:29.497Z,81.85
2023-02-25T02:00:33.855Z,82.00
2023-02-25T02:05:51.270Z,81.84
2023-02-25T02:10:56.560Z,81.93
2023-02-25T02:16:20.590Z,81.84
2023-02-25T02:21:51.178Z,81.95
2023-02-25T02:27:05.994Z,82.12
2023-02-25T02:32:22.423Z,82.13
2023-02-25T02:37:58.861Z,82.23
2023-02-25T02:43:11.184Z,82.33
2023-02-25T02:48:42.239Z,82.56
2023-02-25T02:53:55.900Z,82.33
2023-02-25T02:59:06.050Z,82.42
2023-02-25T03:04:14.534Z,82.57
2023-02-25T03:09:32.959Z,82.43
2023-02-25T03:14:38.012Z,82.32
2023-02-25T03:20:02.623Z,82.37
2023-02-25T03:25:06.033Z,82.43
2023-02-25T03:30:22.661Z,82.43
2023-02-25T03:35:28.328Z,82.66
2023-02-25T03:40:32.948Z,82.67
2023-02-25T03:45:38.445Z,82.70
2023-02-25T03:50:49.321Z,82.65
2023-02-25T03:55:53.360Z,82.56
2023-02-25T04:00:58.423Z,82.50
2023-02-25T04:06:01.804Z,82.55
2023-02-25T04:11:05.526Z,82.80
2023-02-25T04:16:09.015Z,83.07
2023-02-25T04:21:35.747Z,83.10
2023-02-25T04:26:39.226Z,83.20
2023-02-25T04:31:43.395Z,83.19
2023-02-25T04:36:47.672Z,83.03
2023-02-25T04:41:51.100Z,83.11
2023-02-25T04:46:54.741Z,83.20
2023-02-25T04:51:59.873Z,83.24
2023-02-25T04:57:03.481Z,83.42
2023-02-25T05:02:08.136Z,83.30
2023-02-25T05:07:11.742Z,83.42
2023-02-25T05:12:15.157Z,83.49
2023-02-25T05:17:19.398Z,83.47
2023-02-25T05:22:23.213Z,83.51
2023-02-25T05:27:26.843Z,83.59
2023-02-25T05:32:32.361Z,83.63
2023-02-25T05:37:37.655Z,83.74
2023-02-25T05:42:41.066Z,83.88
2023-02-25T05:47:45.299Z,83.98
2023-02-25T05:52:48.711Z,83.95
2023-02-25T05:57:52.224Z,83.92
2023-02-25T06:02:55.850Z,84.04
2023-02-25T06:08:00.178Z,84.05
2023-02-25T06:13:03.593Z,84.25
2023-02-25T06:18:07.902Z,84.43
2023-02-25T06:23:11.438Z,84.57
2023-02-25T06:28:15.061Z,84.52
2023-02-25T06:33:18.573Z,84.40
2023-02-25T06:38:22.199Z,84.58
2023-02-25T06:43:25.825Z,84.52
2023-02-25T06:48:29.325Z,84.62
2023-02-25T06:53:32.744Z,84.80
2023-02-25T06:58:37.786Z,85.01
2023-02-25T07:03:43.701Z,85.06
2023-02-25T07:08:47.296Z,84.46
2023-02-25T07:13:51.405Z,84.71
2023-02-25T07:18:54.792Z,84.63
2023-02-25T07:23:58.752Z,84.65
2023-02-25T07:29:02.976Z,84.63
2023-02-25T07:34:06.576Z,84.93
2023-02-25T07:49:23.081Z,85.20
2023-02-25T07:54:35.016Z,85.28
2023-02-25T07:59:38.457Z,85.45
2023-02-25T08:04:42.118Z,85.20
2023-02-25T08:09:45.663Z,85.11
2023-02-25T08:14:50.358Z,85.44
2023-02-25T08:19:57.092Z,85.57
2023-02-25T08:25:19.539Z,85.49
2023-02-25T08:30:23.572Z,85.71
2023-02-25T08:35:26.950Z,85.78
2023-02-25T08:40:31.974Z,85.24
2023-02-25T08:45:37.619Z,85.65
2023-02-25T08:50:41.108Z,85.53
2023-02-25T08:55:44.965Z,85.20
2023-02-25T09:00:50.326Z,85.52
2023-02-25T09:05:55.156Z,85.19
2023-02-25T09:10:58.649Z,85.31
2023-02-25T09:16:03.125Z,85.17
2023-02-25T09:21:07.217Z,85.13
2023-02-25T09:26:11.772Z,84.94
2023-02-25T09:31:17.424Z,85.11
2023-02-25T09:36:22.150Z,85.08
2023-02-25T09:41:34.284Z,85.05
2023-02-25T09:46:47.713Z,84.83
2023-02-25T09:52:02.248Z,84.81
2023-02-25T09:57:11.253Z,84.79
2023-02-25T10:02:33.238Z,84.80
2023-02-25T10:07:52.487Z,84.48
2023-02-25T10:13:18.374Z,84.64
2023-02-25T10:18:38.751Z,84.27
2023-02-25T10:23:48.308Z,83.90
2023-02-25T10:28:59.288Z,84.00
2023-02-25T10:34:26.127Z,84.21
2023-02-25T10:39:31.544Z,83.72
2023-02-25T10:44:35.876Z,83.48
2023-02-25T10:49:39.054Z,83.49
2023-02-25T10:54:53.248Z,83.77
2023-02-25T11:00:24.497Z,83.27
2023-02-25T11:05:38.158Z,82.34
2023-02-25T11:10:41.653Z,82.41
2023-02-25T11:15:46.562Z,83.31
2023-02-25T11:20:55.032Z,82.20
2023-02-25T11:25:59.569Z,82.41
2023-02-25T11:31:24.876Z,82.34
2023-02-25T11:36:34.772Z,82.48
2023-02-25T11:41:38.172Z,82.63
2023-02-25T11:46:46.545Z,82.74
2023-02-25T11:52:12.238Z,82.79
2023-02-25T11:58:03.784Z,82.87
2023-02-25T12:03:26.759Z,82.71
2023-02-25T12:08:45.418Z,82.84
2023-02-25T12:14:26.512Z,82.62
2023-02-25T12:20:25.534Z,82.58
2023-02-25T12:26:04.888Z,82.54
2023-02-25T12:31:35.674Z,82.31
2023-02-25T12:36:39.192Z,82.39
2023-02-25T12:41:55.700Z,82.27
2023-02-25T12:47:16.906Z,82.30
2023-02-25T12:52:51.149Z,82.28
2023-02-25T12:58:28.864Z,81.97
2023-02-25T13:03:58.523Z,81.80
2023-02-25T13:09:20.846Z,82.29
2023-02-25T13:14:40.566Z,82.11
2023-02-25T13:20:12.068Z,82.06
2023-02-25T13:25:36.519Z,82.02
2023-02-25T13:30:59.917Z,82.05
2023-02-25T13:36:37.723Z,81.90
2023-02-25T13:42:13.289Z,81.63
2023-02-25T13:47:34.724Z,81.40
2023-02-25T13:53:15.718Z,81.31
2023-02-25T13:58:43.509Z,81.42
2023-02-25T14:04:22.453Z,81.27
2023-02-25T14:09:57.204Z,81.35
2023-02-25T14:15:00.533Z,81.55
2023-02-25T14:20:32.286Z,81.30
2023-02-25T14:25:48.093Z,81.47
2023-02-25T14:31:10.932Z,81.42
2023-02-25T14:36:40.383Z,81.40
2023-02-25T14:42:21.166Z,81.46
2023-02-25T14:47:28.499Z,81.58
2023-02-25T14:53:29.945Z,81.04
2023-02-25T14:58:39.198Z,81.84
2023-02-25T15:04:00.645Z,82.11
2023-02-25T15:09:23.200Z,82.55
2023-02-25T15:15:04.292Z,83.01
2023-02-25T15:20:20.195Z,83.56
2023-02-25T15:25:24.019Z,84.35
2023-02-25T15:30:29.190Z,84.81
2023-02-25T15:35:35.574Z,84.81
2023-02-25T15:40:45.186Z,84.82
2023-02-25T15:45:51.774Z,85.14
2023-02-25T15:50:56.063Z,85.23
2023-02-25T15:56:05.490Z,85.41
2023-02-25T16:01:09.007Z,85.59
2023-02-25T16:06:21.634Z,86.05
2023-02-25T16:11:39.383Z,86.36
2023-02-25T16:16:49.828Z,86.62
2023-02-25T16:21:58.407Z,86.93
2023-02-25T16:27:06.934Z,87.03
2023-02-25T16:32:30.740Z,87.24
2023-02-25T16:38:00.661Z,87.43
2023-02-25T16:43:05.348Z,87.71
2023-02-25T16:48:18.614Z,87.92
2023-02-25T16:53:25.853Z,87.88
2023-02-25T16:58:31.060Z,88.17
2023-02-25T17:04:09.225Z,88.05
2023-02-25T17:09:24.320Z,88.42
2023-02-25T17:14:29.671Z,88.52
2023-02-25T17:19:33.292Z,88.60
2023-02-25T17:24:37.534Z,88.64
2023-02-25T17:29:43.563Z,88.94
2023-02-25T17:34:49.606Z,88.82
2023-02-25T17:39:54.217Z,89.06
2023-02-25T17:44:59.248Z,88.97
2023-02-25T17:50:33.005Z,88.97
2023-02-25T17:55:36.610Z,89.14
2023-02-25T18:00:40.331Z,89.25
2023-02-25T18:05:51.837Z,89.17
2023-02-25T18:11:04.874Z,89.24
2023-02-25T18:16:26.774Z,89.34
2023-02-25T18:21:30.651Z,89.36
2023-02-25T18:26:34.468Z,89.26
2023-02-25T18:31:37.992Z,89.29
2023-02-25T18:36:44.051Z,89.44
2023-02-25T18:41:47.570Z,89.38
2023-02-25T18:46:51.388Z,89.09
2023-02-25T18:51:55.106Z,88.89
2023-02-25T18:56:58.728Z,88.82
2023-02-25T19:02:03.300Z,88.94
2023-02-25T19:07:11.867Z,88.86
2023-02-25T19:12:15.728Z,88.91
2023-02-25T19:17:19.390Z,88.92
2023-02-25T19:22:24.024Z,88.87
2023-02-25T19:27:30.299Z,88.97
2023-02-25T19:32:34.613Z,89.24
2023-02-25T19:37:39.997Z,89.32
2023-02-25T19:42:45.941Z,89.29
2023-02-25T19:47:49.962Z,89.29
2023-02-25T19:52:54.714Z,89.30
2023-02-25T19:57:58.319Z,89.25
2023-02-25T20:03:02.367Z,89.28
2023-02-25T20:08:06.067Z,89.30
2023-02-25T20:13:10.318Z,89.27
2023-02-25T20:18:15.393Z,89.36
2023-02-25T20:23:19.690Z,89.30
2023-02-25T20:28:24.330Z,89.16
2023-02-25T20:33:30.212Z,88.69
2023-02-25T20:38:41.604Z,88.30
2023-02-25T20:43:45.632Z,88.35
2023-02-25T20:48:49.795Z,88.14
2023-02-25T20:53:53.607Z,88.13
2023-02-25T20:58:58.636Z,87.68
2023-02-25T21:04:02.828Z,87.35
2023-02-25T21:09:07.025Z,87.31
2023-02-25T21:14:11.641Z,87.08
2023-02-25T21:19:16.952Z,87.20
2023-02-25T21:24:21.431Z,86.71
2023-02-25T21:29:27.260Z,86.73
2023-02-25T21:34:30.935Z,86.63
2023-02-25T21:39:34.537Z,86.32
2023-02-25T21:44:38.377Z,86.47
2023-02-25T21:49:45.740Z,86.32
2023-02-25T21:54:49.896Z,86.41
2023-02-25T21:59:56.178Z,86.84
2023-02-25T22:04:59.902Z,86.86
2023-02-25T22:10:03.764Z,87.07
2023-02-25T22:15:08.263Z,87.36
2023-02-25T22:20:11.846Z,87.32
2023-02-25T22:25:15.608Z,87.17
2023-02-25T22:30:19.530Z,87.02
2023-02-25T22:35:23.081Z,86.88
2023-02-25T22:40:27.380Z,86.83
2023-02-25T22:45:30.800Z,86.28
2023-02-25T22:50:34.421Z,85.95
2023-02-25T22:55:37.946Z,85.81
2023-02-25T23:00:43.635Z,85.17
2023-02-25T23:05:47.109Z,84.49
2023-02-25T23:10:51.037Z,83.76
2023-02-25T23:15:54.563Z,83.49
2023-02-25T23:20:59.193Z,83.49
2023-02-25T23:26:02.704Z,82.96
2023-02-25T23:31:07.392Z,82.88
2023-02-25T23:36:11.854Z,82.49
2023-02-25T23:41:15.098Z,82.18
2023-02-25T23:46:18.874Z,81.99
2023-02-25T23:51:22.844Z,82.28
2023-02-25T23:56:27.744Z,82.39
